Time;durP1;ratioP1;P1;durP2;ratioP2;P2;SDS_P1;SDS_P2;PMS_P1;PMS_P2;Temp;Humidity;BMP_temperature;BMP_pressure;BME280_temperature;BME280_humidity;BME280_pressure;Samples;Min_cycle;Max_cycle;Signal;HPM_P1;HPM_P2
2024/03/20 00:02:03;;;;;;;8.80;5.75;;;;;;;9.38;69.83;97000.06;4973663;28;20123;-76
2024/03/20 00:04:30;;;;;;;8.25;5.45;;;;;;;9.38;69.87;96992.25;4972845;28;20061;-76
2024/03/20 00:06:57;;;;;;;8.93;5.63;;;;;;;9.38;69.75;96988.81;4972992;28;20058;-76
2024/03/20 00:09:24;;;;;;;10.73;5.55;;;;;;;9.36;69.70;96985.56;4972831;28;20224;-76
2024/03/20 00:11:52;;;;;;;6.50;5.18;;;;;;;9.32;69.87;96986.91;4973258;28;20054;-77
2024/03/20 00:14:19;;;;;;;6.47;5.18;;;;;;;9.26;69.92;96980.53;4972309;28;20062;-76
2024/03/20 00:16:46;;;;;;;7.68;5.30;;;;;;;9.20;70.01;96978.59;4973016;28;20054;-77
2024/03/20 00:19:13;;;;;;;6.88;5.10;;;;;;;9.16;70.13;96972.91;4972985;28;20047;-77
2024/03/20 00:21:39;;;;;;;7.93;5.50;;;;;;;9.11;69.96;96976.97;4973123;28;20059;-76
2024/03/20 00:24:06;;;;;;;6.65;5.25;;;;;;;9.10;70.32;96972.75;4972946;28;20051;-76
2024/03/20 00:26:33;;;;;;;8.95;5.22;;;;;;;9.07;70.27;96969.50;4972681;28;20059;-77
2024/03/20 00:29:00;;;;;;;8.95;5.65;;;;;;;9.03;70.56;96968.19;4972601;28;20058;-76
2024/03/20 00:31:27;;;;;;;8.02;5.10;;;;;;;8.99;70.44;96969.50;4972912;28;20059;-76
2024/03/20 00:33:54;;;;;;;7.10;5.50;;;;;;;8.94;70.54;96961.34;4992114;28;20047;-77
2024/03/20 00:36:21;;;;;;;7.00;5.63;;;;;;;8.92;70.69;96968.53;4994619;28;20054;-76
2024/03/20 00:38:47;;;;;;;10.45;6.07;;;;;;;8.93;70.99;96971.94;4981361;28;20055;-77
2024/03/20 00:41:14;;;;;;;7.88;5.53;;;;;;;8.94;71.04;96968.34;4973703;28;20062;-77
2024/03/20 00:43:41;;;;;;;7.50;5.57;;;;;;;9.03;72.90;96964.75;4973297;28;20059;-76
2024/03/20 00:46:08;;;;;;;8.30;7.15;;;;;;;9.15;74.84;96966.06;4972848;28;20063;-77
2024/03/20 00:48:35;;;;;;;9.85;7.70;;;;;;;9.23;73.38;96953.06;4972879;28;20458;-76
2024/03/20 00:51:02;;;;;;;10.10;6.40;;;;;;;9.23;71.83;96954.84;4972815;28;20059;-77
2024/03/20 00:53:28;;;;;;;10.27;6.70;;;;;;;9.21;71.76;96962.00;4972762;28;20065;-76
2024/03/20 00:55:55;;;;;;;6.75;5.40;;;;;;;9.19;71.24;96950.94;4973022;28;20430;-77
2024/03/20 00:58:21;;;;;;;6.35;5.22;;;;;;;9.14;71.11;96953.22;4973492;28;20055;-77
2024/03/20 01:00:49;;;;;;;5.70;5.00;;;;;;;9.08;70.97;96955.50;4973085;28;20576;-77
2024/03/20 01:03:17;;;;;;;5.38;4.65;;;;;;;9.05;70.98;96952.41;4972402;28;20051;-76
2024/03/20 01:05:44;;;;;;;6.60;4.28;;;;;;;9.03;71.42;96952.59;4972531;28;20058;-76
2024/03/20 01:08:11;;;;;;;6.22;4.97;;;;;;;9.02;71.09;96956.16;4972277;28;20408;-75
2024/03/20 01:10:37;;;;;;;6.93;4.97;;;;;;;8.97;70.86;96950.63;4972681;28;20061;-76
2024/03/20 01:13:04;;;;;;;6.32;4.78;;;;;;;8.94;70.79;96945.72;4972449;28;20058;-77
2024/03/20 01:15:31;;;;;;;7.15;4.57;;;;;;;8.90;71.05;96944.47;4972310;28;20057;-76
2024/03/20 01:17:58;;;;;;;10.52;5.55;;;;;;;8.86;70.98;96937.94;4972201;28;20061;-77
2024/03/20 01:20:26;;;;;;;7.38;5.40;;;;;;;8.81;70.98;96932.41;4972803;28;20067;-76
2024/03/20 01:22:52;;;;;;;9.30;5.35;;;;;;;8.78;71.37;96933.53;4972525;28;20054;-76
2024/03/20 01:25:19;;;;;;;8.10;5.60;;;;;;;8.78;71.33;96928.34;4974412;28;20062;-76
2024/03/20 01:27:46;;;;;;;7.47;4.97;;;;;;;8.77;71.08;96925.91;4976400;28;20051;-76
2024/03/20 01:30:13;;;;;;;7.78;5.28;;;;;;;8.73;71.21;96927.22;4976362;28;20066;-76
2024/03/20 01:32:40;;;;;;;8.02;5.65;;;;;;;8.70;71.12;96927.53;4975995;28;20529;-77
2024/03/20 01:35:07;;;;;;;8.43;5.00;;;;;;;8.63;71.36;96922.16;4976140;28;20066;-77
2024/03/20 01:37:35;;;;;;;6.38;5.28;;;;;;;8.56;71.48;96922.00;4975752;28;20059;-76
2024/03/20 01:40:02;;;;;;;6.25;4.78;;;;;;;8.52;71.76;96923.28;4975729;28;20499;-76
2024/03/20 01:42:29;;;;;;;8.25;5.45;;;;;;;8.49;71.70;96915.81;4975744;28;20059;-76
2024/03/20 01:45:11;;;;;;;6.18;4.78;;;;;;;8.43;72.16;96922.44;4976000;28;20109;-76
2024/03/20 01:47:38;;;;;;;5.88;5.05;;;;;;;8.36;71.79;96915.44;4976009;28;20573;-76
2024/03/20 01:50:08;;;;;;;7.50;4.60;;;;;;;8.29;71.93;96924.81;4975597;28;20062;-77
2024/03/20 01:52:38;;;;;;;6.38;5.30;;;;;;;8.24;72.23;96923.53;4975922;28;20533;-77
2024/03/20 01:55:06;;;;;;;9.55;5.05;;;;;;;8.21;72.13;96917.84;4975815;28;20514;-76
2024/03/20 01:57:33;;;;;;;9.02;5.40;;;;;;;8.18;72.25;96913.78;4975225;28;20059;-76
2024/03/20 01:59:59;;;;;;;6.35;4.97;;;;;;;8.17;72.41;96916.53;4975716;28;20055;-77
2024/03/20 02:02:26;;;;;;;9.10;6.32;;;;;;;8.15;72.48;96914.06;4975486;28;20051;-76
2024/03/20 02:04:52;;;;;;;7.38;5.43;;;;;;;8.16;72.58;96913.13;4975448;28;20058;-76
2024/03/20 02:07:19;;;;;;;7.90;5.75;;;;;;;8.18;72.60;96908.56;4975213;28;20070;-76
2024/03/20 02:09:47;;;;;;;6.85;5.25;;;;;;;8.20;72.76;96913.63;4975274;28;20427;-76
2024/03/20 02:12:14;;;;;;;8.38;6.55;;;;;;;8.22;72.68;96909.06;4975529;28;20055;-76
2024/03/20 02:14:40;;;;;;;7.90;6.35;;;;;;;8.22;72.49;96912.50;4975700;28;20071;-77
2024/03/20 02:17:07;;;;;;;7.85;5.63;;;;;;;8.23;72.50;96914.09;4974991;28;20465;-76
2024/03/20 02:19:34;;;;;;;7.75;5.78;;;;;;;8.21;72.38;96908.25;4975181;28;20499;-77
2024/03/20 02:22:03;;;;;;;7.38;5.55;;;;;;;8.23;72.48;96900.31;4974927;28;20059;-76
2024/03/20 02:24:30;;;;;;;8.82;5.30;;;;;;;8.24;72.46;96899.31;4975154;28;20061;-76
2024/03/20 02:26:57;;;;;;;11.63;5.78;;;;;;;8.24;72.44;96900.16;4974918;28;20422;-76
2024/03/20 02:29:23;;;;;;;8.10;5.32;;;;;;;8.25;72.46;96898.34;4974805;28;20055;-76
2024/03/20 02:31:50;;;;;;;8.00;5.50;;;;;;;8.26;72.34;96899.97;4975286;28;20055;-76
2024/03/20 02:34:17;;;;;;;7.35;5.28;;;;;;;8.29;72.44;96909.22;4975036;28;20434;-76
2024/03/20 02:36:46;;;;;;;8.63;6.05;;;;;;;8.32;72.46;96903.72;4973948;28;20430;-76
2024/03/20 02:39:14;;;;;;;7.20;5.65;;;;;;;8.33;72.52;96908.78;4974878;28;20059;-76
2024/03/20 02:41:40;;;;;;;8.68;5.93;;;;;;;8.36;72.18;96912.84;4975050;28;20059;-76
2024/03/20 02:44:07;;;;;;;6.00;5.10;;;;;;;8.40;72.08;96914.16;4974932;28;20430;-76
2024/03/20 02:46:34;;;;;;;8.23;5.95;;;;;;;8.42;71.98;96907.03;4974606;28;20051;-76
2024/03/20 02:49:01;;;;;;;8.85;6.45;;;;;;;8.45;72.37;96911.91;4974778;28;20051;-77
2024/03/20 02:51:27;;;;;;;7.97;5.78;;;;;;;8.49;73.68;96913.22;4974783;28;20058;-77
2024/03/20 02:53:54;;;;;;;8.93;5.88;;;;;;;8.54;72.71;96916.13;4974579;28;20431;-77
2024/03/20 02:56:22;;;;;;;8.57;5.88;;;;;;;8.54;72.90;96916.13;4974363;28;20053;-76
2024/03/20 02:58:48;;;;;;;7.25;6.00;;;;;;;8.61;75.06;96914.50;4974545;28;20058;-76
2024/03/20 03:01:15;;;;;;;7.38;5.68;;;;;;;8.71;76.77;96918.75;4975243;28;20058;-77
2024/03/20 03:03:41;;;;;;;15.48;8.27;;;;;;;8.82;78.41;96927.03;4974258;28;20063;-77
2024/03/20 03:06:08;;;;;;;12.60;8.57;;;;;;;8.91;79.21;96920.06;4974233;28;20062;-77
2024/03/20 03:08:35;;;;;;;16.52;8.63;;;;;;;8.95;76.17;96921.34;4974588;28;20434;-76
2024/03/20 03:11:01;;;;;;;13.95;7.95;;;;;;;8.90;74.03;96922.81;4974542;28;20062;-76
2024/03/20 03:13:29;;;;;;;10.40;7.57;;;;;;;8.83;74.36;96927.84;4973991;28;20062;-76
2024/03/20 03:16:02;;;;;;;13.57;8.57;;;;;;;8.73;72.46;96927.22;4973918;28;20066;-76
2024/03/20 03:18:28;;;;;;;12.52;8.68;;;;;;;8.63;71.97;96922.97;4974356;28;20058;-76
2024/03/20 03:20:55;;;;;;;16.70;8.32;;;;;;;8.54;71.49;96923.13;4974118;28;20066;-76
2024/03/20 03:23:22;;;;;;;11.10;7.43;;;;;;;8.45;71.03;96927.50;4974113;28;20051;-77
2024/03/20 03:25:49;;;;;;;10.57;7.93;;;;;;;8.37;71.94;96928.25;4973493;28;20058;-76
2024/03/20 03:28:15;;;;;;;10.80;7.68;;;;;;;8.33;71.64;96923.53;4974253;28;20063;-77
2024/03/20 03:30:43;;;;;;;10.48;6.97;;;;;;;8.32;74.22;96932.31;4973917;28;20047;-76
2024/03/20 03:33:10;;;;;;;14.48;8.27;;;;;;;8.32;72.34;96932.31;4973971;28;20057;-76
2024/03/20 03:35:36;;;;;;;12.32;8.30;;;;;;;8.29;74.53;96943.00;4973919;28;20054;-76
2024/03/20 03:38:03;;;;;;;10.23;7.85;;;;;;;8.36;75.17;96939.63;4973444;28;20260;-77
2024/03/20 03:40:30;;;;;;;12.50;6.93;;;;;;;8.40;74.36;96935.78;4973382;28;20506;-76
2024/03/20 03:42:56;;;;;;;9.80;7.47;;;;;;;8.41;74.10;96944.38;4973680;28;20061;-76
2024/03/20 03:45:23;;;;;;;9.48;6.57;;;;;;;8.36;72.45;96937.03;4973428;28;20247;-76
2024/03/20 03:47:51;;;;;;;9.73;7.22;;;;;;;8.31;71.76;96944.50;4973924;28;20058;-76
2024/03/20 03:50:18;;;;;;;11.05;7.50;;;;;;;8.27;71.74;96938.00;4973675;28;20061;-77
2024/03/20 03:52:45;;;;;;;9.02;7.10;;;;;;;8.22;71.40;96935.88;4973375;28;20423;-76
2024/03/20 03:55:12;;;;;;;9.23;7.05;;;;;;;8.20;71.41;96932.63;4973332;28;20054;-76
2024/03/20 03:57:38;;;;;;;9.38;6.93;;;;;;;8.24;73.09;96939.13;4991224;28;20062;-76
2024/03/20 04:00:07;;;;;;;8.88;6.63;;;;;;;8.27;71.91;96942.38;4992092;28;20061;-77
2024/03/20 04:02:33;;;;;;;11.30;7.18;;;;;;;8.21;70.62;96933.44;4981396;28;20117;-77
2024/03/20 04:05:01;;;;;;;9.07;7.05;;;;;;;8.16;71.06;96939.09;4992408;28;20054;-77
2024/03/20 04:07:28;;;;;;;9.05;6.82;;;;;;;8.17;71.32;96938.13;4975353;28;20061;-77
2024/03/20 04:09:54;;;;;;;9.82;6.50;;;;;;;8.22;73.44;96937.63;4973878;28;20474;-76
2024/03/20 04:12:21;;;;;;;9.57;7.00;;;;;;;8.24;72.41;96933.94;4973484;28;20054;-76
2024/03/20 04:14:48;;;;;;;7.88;6.63;;;;;;;8.23;72.73;96937.50;4973521;28;20059;-77
2024/03/20 04:17:15;;;;;;;8.45;6.38;;;;;;;8.25;74.76;96940.75;4973489;28;20055;-77
2024/03/20 04:19:41;;;;;;;10.02;7.18;;;;;;;8.28;74.49;96941.41;4973250;28;20163;-76
2024/03/20 04:22:09;;;;;;;10.25;7.45;;;;;;;8.29;75.85;96941.25;4973564;28;20066;-76
2024/03/20 04:24:36;;;;;;;9.85;7.53;;;;;;;8.33;77.70;96939.13;4973045;28;20051;-76
2024/03/20 04:27:04;;;;;;;9.02;7.10;;;;;;;8.35;75.72;96940.63;5415398;23;20022;-80
2024/03/20 04:29:31;;;;;;;10.57;7.60;;;;;;;8.37;77.88;96935.25;4993329;28;20058;-81
2024/03/20 04:31:58;;;;;;;9.18;7.30;;;;;;;8.44;79.19;96931.09;4993706;28;20042;-81
2024/03/20 04:34:25;;;;;;;11.85;7.80;;;;;;;8.45;77.73;96945.69;4993569;28;20050;-81
2024/03/20 04:36:54;;;;;;;10.63;7.53;;;;;;;8.47;79.95;96933.34;4986271;28;20054;-81
2024/03/20 04:39:29;;;;;;;12.45;7.50;;;;;;;8.54;81.09;96934.34;4973974;28;20051;-81
2024/03/20 04:41:57;;;;;;;10.35;7.03;;;;;;;8.58;80.97;96933.03;4974198;28;20062;-81
2024/03/20 04:44:24;;;;;;;9.68;7.53;;;;;;;8.57;78.34;96933.19;4974163;28;20047;-80
2024/03/20 04:46:51;;;;;;;9.95;7.25;;;;;;;8.46;75.13;96931.72;4973790;28;20058;-81
2024/03/20 04:49:20;;;;;;;8.38;6.88;;;;;;;8.33;75.86;96931.34;4974123;28;20062;-81
2024/03/20 04:51:48;;;;;;;10.18;6.75;;;;;;;8.27;76.63;96932.81;4973396;28;20055;-80
2024/03/20 04:54:16;;;;;;;8.70;6.72;;;;;;;8.22;77.49;96930.69;4973608;28;20109;-81
2024/03/20 04:56:45;;;;;;;7.82;6.63;;;;;;;8.28;80.73;96934.41;4973996;28;20474;-81
2024/03/20 04:59:12;;;;;;;11.38;6.88;;;;;;;8.30;77.45;96931.66;4973385;28;20051;-81
2024/03/20 05:01:40;;;;;;;12.57;6.97;;;;;;;8.23;75.81;96923.69;4974639;28;20062;-79
2024/03/20 05:04:08;;;;;;;8.60;7.35;;;;;;;8.17;73.92;96937.31;4973719;28;20507;-81
2024/03/20 05:06:35;;;;;;;9.60;7.25;;;;;;;8.11;75.87;96936.19;4973683;28;20490;-81
2024/03/20 05:09:04;;;;;;;13.88;7.47;;;;;;;8.10;75.00;96934.53;4974794;28;20182;-80
2024/03/20 05:11:32;;;;;;;9.05;6.93;;;;;;;8.14;76.62;96937.63;4982885;28;20054;-81
2024/03/20 05:14:01;;;;;;;11.35;8.13;;;;;;;8.17;77.99;96938.13;4973928;28;20055;-80
2024/03/20 05:16:29;;;;;;;9.35;7.38;;;;;;;8.16;76.07;96938.31;4973386;28;20055;-81
2024/03/20 05:18:55;;;;;;;11.93;7.90;;;;;;;8.13;76.16;96939.41;4973416;28;20470;-81
2024/03/20 05:31:26;;;;;;;10.65;8.10;;;;;;;8.12;75.22;96940.38;5531253;23;20065;-80
2024/03/20 05:33:52;;;;;;;10.57;7.15;;;;;;;8.14;73.96;96943.66;4989857;28;20056;-80
2024/03/20 05:36:19;;;;;;;14.10;7.22;;;;;;;8.10;74.03;96937.13;4981406;28;20059;-80
2024/03/20 05:38:45;;;;;;;13.35;7.97;;;;;;;8.11;75.31;96949.16;4957815;28;20051;-81
2024/03/20 05:41:12;;;;;;;11.60;7.55;;;;;;;8.12;75.01;96948.19;4959548;28;20082;-80
2024/03/20 05:43:38;;;;;;;9.40;6.85;;;;;;;8.13;74.24;96952.41;4964794;28;20504;-80
2024/03/20 05:46:05;;;;;;;11.13;8.05;;;;;;;8.14;73.76;96951.44;4970423;28;20534;-80
2024/03/20 05:48:33;;;;;;;16.98;8.68;;;;;;;8.19;74.65;96950.97;4954931;28;20055;-81
2024/03/20 05:51:01;;;;;;;14.65;9.73;;;;;;;8.26;74.75;96957.16;4954951;28;20055;-80
2024/03/20 05:53:27;;;;;;;14.75;9.45;;;;;;;8.29;74.44;96958.63;4956300;28;20535;-80
2024/03/20 05:58:56;;;;;;;15.23;9.52;;;;;;;8.19;73.57;96954.38;4966651;28;20411;-79
2024/03/20 06:01:28;;;;;;;15.07;10.52;;;;;;;8.16;73.53;96954.69;4958055;28;20066;-80
2024/03/20 06:10:08;;;;;;;14.52;9.05;;;;;;;8.09;73.63;96960.66;4915814;29;20334;-82
2024/03/20 06:12:35;;;;;;;13.30;9.88;;;;;;;8.05;73.68;96955.78;4918731;29;20056;-81
2024/03/20 06:15:03;;;;;;;16.60;9.68;;;;;;;8.05;73.85;96961.00;4919676;29;20066;-81
2024/03/20 06:17:30;;;;;;;12.57;9.43;;;;;;;8.05;73.90;96950.59;4919707;29;20401;-81
2024/03/20 06:19:58;;;;;;;13.75;10.10;;;;;;;8.07;73.90;96955.66;4919818;29;20052;-81
2024/03/20 06:22:24;;;;;;;14.10;10.23;;;;;;;8.13;73.97;96956.78;5002082;23;20407;-80
2024/03/20 06:24:50;;;;;;;13.68;9.48;;;;;;;8.18;73.98;96960.56;4994451;28;20058;-80
2024/03/20 06:27:17;;;;;;;14.43;9.25;;;;;;;8.24;73.98;96965.13;4994487;28;20062;-79
2024/03/20 06:29:43;;;;;;;12.07;8.90;;;;;;;8.31;73.55;96967.06;4994442;28;20054;-80
2024/03/20 06:32:10;;;;;;;14.27;9.63;;;;;;;8.34;73.36;96961.56;4980185;28;20057;-80
2024/03/20 06:34:36;;;;;;;13.40;9.65;;;;;;;8.36;73.48;96972.63;4974815;28;20565;-80
2024/03/20 06:37:05;;;;;;;15.95;10.15;;;;;;;8.40;72.89;96973.94;4974592;28;20055;-80
2024/03/20 06:39:31;;;;;;;16.23;10.00;;;;;;;8.43;73.03;96977.03;4975227;28;20058;-81
2024/03/20 06:41:58;;;;;;;15.48;9.98;;;;;;;8.46;73.01;96968.09;4975312;28;20055;-78
2024/03/20 06:44:23;;;;;;;14.55;10.10;;;;;;;8.52;73.58;96975.28;4975420;28;20055;-78
2024/03/20 06:46:50;;;;;;;14.85;9.45;;;;;;;8.55;73.20;96972.38;4975171;28;20047;-78
2024/03/20 06:49:18;;;;;;;13.98;9.35;;;;;;;8.58;72.73;96982.44;4975187;28;20490;-78
2024/03/20 06:51:49;;;;;;;13.43;8.98;;;;;;;8.68;73.03;96966.72;4974905;28;20125;-78
2024/03/20 06:54:19;;;;;;;14.02;10.18;;;;;;;8.79;72.77;96976.81;4975570;28;20055;-78
2024/03/20 06:56:48;;;;;;;11.65;8.75;;;;;;;8.91;72.45;96976.47;4978566;28;20113;-79
2024/03/20 06:59:16;;;;;;;12.23;8.77;;;;;;;9.04;72.13;96972.41;4974707;28;20051;-78
2024/03/20 07:01:41;;;;;;;11.18;8.73;;;;;;;9.18;72.00;96978.78;4974901;28;20054;-79
2024/03/20 07:04:08;;;;;;;12.35;8.75;;;;;;;9.32;71.51;96985.09;4974715;28;20070;-79
2024/03/20 07:06:34;;;;;;;13.85;8.90;;;;;;;9.45;71.29;96980.19;4974954;28;20066;-78
2024/03/20 07:09:01;;;;;;;13.15;9.43;;;;;;;9.58;70.78;96986.69;4974793;28;20055;-78
2024/03/20 07:11:28;;;;;;;13.05;8.45;;;;;;;9.70;70.13;96983.56;4974230;28;20054;-78
2024/03/20 07:13:55;;;;;;;12.85;8.75;;;;;;;9.86;69.86;96985.31;4974685;28;20105;-79
2024/03/20 07:16:20;;;;;;;12.02;8.82;;;;;;;10.05;70.41;96985.91;4974238;28;20105;-78
2024/03/20 07:18:48;;;;;;;12.90;8.50;;;;;;;10.23;69.54;96989.09;4974281;28;20117;-78
2024/03/20 07:21:14;;;;;;;12.40;8.02;;;;;;;10.41;68.89;96995.91;4973597;28;20135;-79
2024/03/20 07:23:40;;;;;;;13.05;7.68;;;;;;;10.61;68.55;96994.47;4973943;28;20062;-79
2024/03/20 07:26:06;;;;;;;10.20;7.25;;;;;;;10.81;67.87;96988.81;4973919;28;20066;-77
2024/03/20 07:28:37;;;;;;;12.90;7.13;;;;;;;11.02;66.90;96988.16;4974236;28;20055;-79
2024/03/20 07:31:03;;;;;;;9.02;6.82;;;;;;;11.24;66.32;96992.56;4989699;28;20061;-78
2024/03/20 07:33:29;;;;;;;12.77;7.07;;;;;;;11.43;65.51;96990.44;4994435;28;20141;-78
2024/03/20 07:35:55;;;;;;;9.13;7.03;;;;;;;11.60;65.06;96989.28;4985974;28;20074;-78
2024/03/20 07:38:22;;;;;;;8.10;6.47;;;;;;;11.81;64.54;96996.44;4975100;28;20054;-78
2024/03/20 07:40:51;;;;;;;8.43;6.75;;;;;;;12.00;63.14;96991.69;4974335;28;20053;-79
2024/03/20 07:43:17;;;;;;;7.97;5.32;;;;;;;12.19;62.90;96992.94;4974084;28;20110;-78
2024/03/20 07:45:44;;;;;;;7.88;5.80;;;;;;;12.32;61.84;96999.13;4973839;28;20066;-78
2024/03/20 07:48:11;;;;;;;6.85;5.78;;;;;;;12.44;62.45;96985.59;4974304;28;20467;-79
2024/03/20 07:50:37;;;;;;;7.90;6.35;;;;;;;12.59;61.50;96999.44;4973586;28;20097;-78
2024/03/20 07:53:04;;;;;;;6.05;5.32;;;;;;;12.81;60.83;96996.84;4973599;28;20047;-78
2024/03/20 07:55:30;;;;;;;5.95;5.32;;;;;;;13.07;60.36;96999.72;4973475;28;20105;-78
2024/03/20 07:57:57;;;;;;;9.52;4.57;;;;;;;13.51;58.41;97000.53;4973211;28;20485;-79
2024/03/20 08:00:28;;;;;;;6.43;4.80;;;;;;;14.13;57.41;97010.22;4973460;28;20055;-78
2024/03/20 08:02:56;;;;;;;5.45;4.78;;;;;;;14.72;54.42;97008.06;4973513;28;20077;-78
2024/03/20 08:05:22;;;;;;;5.43;4.50;;;;;;;15.15;53.59;97005.94;4972997;28;20054;-78
2024/03/20 08:07:49;;;;;;;6.65;4.57;;;;;;;15.29;52.80;97004.13;4973429;28;20108;-78
2024/03/20 08:10:15;;;;;;;5.05;4.55;;;;;;;15.14;52.77;97011.38;4973252;28;20047;-78
2024/03/20 08:12:42;;;;;;;8.32;4.15;;;;;;;15.00;53.06;97003.50;4973217;28;20426;-79
2024/03/20 08:15:09;;;;;;;7.60;3.95;;;;;;;15.03;53.09;97004.91;4973185;28;20081;-78
2024/03/20 08:17:36;;;;;;;6.32;3.85;;;;;;;15.27;52.66;97007.97;4972816;28;20527;-78
2024/03/20 08:20:04;;;;;;;7.03;4.07;;;;;;;15.95;50.26;97016.44;4973245;28;20054;-78
2024/03/20 08:22:31;;;;;;;4.55;4.15;;;;;;;16.73;48.67;97004.25;4972642;28;20055;-79
2024/03/20 08:24:57;;;;;;;5.05;4.07;;;;;;;17.35;49.95;97017.66;4972952;28;20062;-78
2024/03/20 08:27:26;;;;;;;6.35;4.80;;;;;;;17.93;47.50;97014.75;4972868;28;20058;-79
2024/03/20 08:29:54;;;;;;;6.30;4.75;;;;;;;18.36;44.98;97008.59;4972804;28;20050;-79
2024/03/20 08:32:21;;;;;;;7.35;4.95;;;;;;;18.72;43.54;97014.88;4972844;28;20426;-78
2024/03/20 08:34:47;;;;;;;5.65;4.10;;;;;;;18.89;43.13;97012.44;4972101;28;20059;-79
2024/03/20 08:37:15;;;;;;;5.47;4.60;;;;;;;19.19;42.06;97009.75;4972843;28;20062;-79
2024/03/20 08:39:40;;;;;;;5.95;3.97;;;;;;;19.50;41.21;97005.22;4973109;28;20162;-79
2024/03/20 08:42:07;;;;;;;4.75;3.35;;;;;;;19.71;41.02;97009.97;4972969;28;20582;-79
2024/03/20 08:44:33;;;;;;;8.13;3.40;;;;;;;19.85;40.09;97009.75;4972386;28;20054;-79
2024/03/20 08:47:00;;;;;;;3.63;2.92;;;;;;;19.92;40.62;97010.47;4972770;28;20058;-79
2024/03/20 08:49:26;;;;;;;5.85;3.03;;;;;;;20.00;40.02;97007.44;4983493;28;20054;-79
2024/03/20 08:51:53;;;;;;;3.03;2.63;;;;;;;20.03;42.81;97011.47;4992949;28;20086;-78
2024/03/20 08:54:21;;;;;;;3.38;2.15;;;;;;;19.92;39.17;97005.16;4993922;28;20053;-79
2024/03/20 08:56:47;;;;;;;3.90;2.10;;;;;;;19.70;39.15;97005.75;4989404;28;20061;-79
2024/03/20 08:59:13;;;;;;;3.97;2.15;;;;;;;19.46;39.19;97001.41;4973505;28;20050;-79
2024/03/20 09:01:40;;;;;;;4.63;2.53;;;;;;;19.24;39.49;97007.25;4972525;28;20670;-79
2024/03/20 09:04:05;;;;;;;5.00;2.58;;;;;;;19.12;39.99;97007.22;4972612;28;20193;-78
2024/03/20 09:06:32;;;;;;;4.15;2.10;;;;;;;19.06;39.83;96999.38;4972297;28;20058;-79
2024/03/20 09:08:58;;;;;;;2.20;1.30;;;;;;;18.98;40.30;97000.53;4972430;28;20506;-78
2024/03/20 09:11:26;;;;;;;2.13;1.33;;;;;;;18.96;39.41;96999.94;4972136;28;20058;-79
2024/03/20 09:13:52;;;;;;;2.45;1.67;;;;;;;19.03;39.44;96994.56;4972470;28;20058;-79
2024/03/20 09:16:19;;;;;;;4.57;1.50;;;;;;;19.18;40.53;96994.94;4972227;28;20051;-79
2024/03/20 09:18:45;;;;;;;3.05;1.27;;;;;;;19.37;42.37;96997.50;4972959;28;20055;-79
2024/03/20 09:21:12;;;;;;;1.88;1.25;;;;;;;19.52;39.10;96992.56;4972556;28;20130;-79
2024/03/20 09:23:38;;;;;;;2.20;1.25;;;;;;;19.65;38.74;96989.69;4972535;28;20051;-79
2024/03/20 09:26:05;;;;;;;4.80;1.33;;;;;;;19.83;38.65;96995.94;4972388;28;20051;-79
2024/03/20 09:28:32;;;;;;;2.63;1.20;;;;;;;19.94;36.99;96989.81;4972432;28;20514;-79
2024/03/20 09:30:58;;;;;;;2.25;1.75;;;;;;;19.98;37.81;96988.31;4971841;28;20046;-78
2024/03/20 09:33:24;;;;;;;1.42;1.25;;;;;;;20.12;37.79;96988.91;4972629;28;20059;-80
2024/03/20 09:35:52;;;;;;;2.17;1.15;;;;;;;20.23;36.15;96984.63;4972343;28;20109;-80
2024/03/20 09:38:18;;;;;;;1.98;1.20;;;;;;;20.29;38.45;96981.84;4973198;28;20047;-79
2024/03/20 09:40:44;;;;;;;1.38;1.27;;;;;;;20.26;36.16;96981.50;4973254;28;20138;-80
2024/03/20 09:43:10;;;;;;;4.15;1.20;;;;;;;20.19;35.09;96978.19;4972913;28;20070;-80
2024/03/20 09:45:38;;;;;;;1.98;1.23;;;;;;;20.15;35.09;96975.97;4973235;28;20446;-79
2024/03/20 09:48:04;;;;;;;1.63;1.00;;;;;;;20.27;38.49;96986.56;4976226;28;20078;-79
2024/03/20 09:50:32;;;;;;;3.47;1.42;;;;;;;20.41;35.74;96981.81;4975995;28;20054;-80
2024/03/20 09:52:57;;;;;;;2.10;1.25;;;;;;;20.43;35.50;96984.22;4976348;28;20058;-80
2024/03/20 09:55:24;;;;;;;3.35;1.70;;;;;;;20.47;35.32;96982.72;4985822;28;20106;-80
2024/03/20 09:57:50;;;;;;;1.55;1.30;;;;;;;20.45;35.39;96982.94;4997237;28;20065;-79
2024/03/20 10:00:19;;;;;;;4.57;1.27;;;;;;;20.54;36.04;96984.19;4996804;28;20051;-80
2024/03/20 10:02:48;;;;;;;1.95;1.38;;;;;;;20.59;34.17;96988.81;4993267;28;20058;-81
2024/03/20 10:05:15;;;;;;;2.05;1.35;;;;;;;20.64;34.96;96969.53;4977718;28;20059;-81
2024/03/20 10:07:41;;;;;;;5.60;1.30;;;;;;;20.72;34.45;96972.59;4978158;28;20066;-80
2024/03/20 10:10:12;;;;;;;3.38;1.27;;;;;;;20.75;34.37;96966.84;4979429;28;20061;-81
2024/03/20 10:12:39;;;;;;;4.22;1.25;;;;;;;20.80;36.49;96966.13;4977127;28;20055;-80
2024/03/20 10:15:07;;;;;;;3.55;1.17;;;;;;;20.91;34.47;96967.91;4978877;28;20058;-81
2024/03/20 10:17:34;;;;;;;2.22;1.00;;;;;;;20.90;33.81;96963.69;4980268;28;20073;-81
2024/03/20 10:20:05;;;;;;;1.38;1.25;;;;;;;21.01;35.53;96964.63;4978769;28;20059;-81
2024/03/20 10:22:32;;;;;;;1.55;1.10;;;;;;;21.12;33.20;96966.44;4975941;28;20051;-81
2024/03/20 10:24:58;;;;;;;1.92;1.08;;;;;;;21.22;32.72;96965.78;4983678;28;20042;-80
2024/03/20 10:27:24;;;;;;;3.42;1.20;;;;;;;21.26;32.77;96966.91;4983567;28;20061;-81
2024/03/20 10:29:53;;;;;;;4.47;1.35;;;;;;;21.37;33.09;96971.34;4978354;28;20097;-81
2024/03/20 10:32:20;;;;;;;1.33;0.95;;;;;;;21.59;32.61;96965.31;4977880;28;20426;-82
2024/03/20 10:34:48;;;;;;;5.63;1.30;;;;;;;21.78;32.68;96968.53;4977507;28;20055;-81
2024/03/20 10:37:16;;;;;;;0.70;0.70;;;;;;;21.94;31.41;96969.53;4978221;28;20065;-81
2024/03/20 10:39:43;;;;;;;1.42;0.70;;;;;;;21.99;31.43;96969.59;4977501;28;20070;-78
2024/03/20 10:42:11;;;;;;;2.00;0.98;;;;;;;22.12;34.88;96969.22;4978156;28;20058;-79
2024/03/20 10:44:38;;;;;;;0.80;0.77;;;;;;;22.25;32.04;96965.44;4977365;28;20059;-78
2024/03/20 10:47:05;;;;;;;2.42;0.82;;;;;;;22.44;32.40;96965.94;4977387;28;20055;-81
2024/03/20 10:49:32;;;;;;;1.00;0.88;;;;;;;22.62;33.59;96965.59;4977253;28;20066;-81
2024/03/20 10:51:58;;;;;;;3.53;0.90;;;;;;;22.80;31.16;96958.31;4976310;28;20154;-79
2024/03/20 10:54:27;;;;;;;0.77;0.77;;;;;;;22.92;31.71;96955.53;4976794;28;20055;-78
2024/03/20 10:56:57;;;;;;;2.95;1.13;;;;;;;23.03;30.84;96954.59;4976209;28;20077;-79
2024/03/20 10:59:26;;;;;;;1.85;0.98;;;;;;;23.12;30.52;96958.38;4977294;28;20319;-80
2024/03/20 11:01:56;;;;;;;2.22;1.23;;;;;;;23.26;33.19;96956.09;4978144;28;20105;-79
2024/03/20 11:04:37;;;;;;;2.13;0.85;;;;;;;23.37;31.14;96947.13;4986688;28;20427;-79
2024/03/20 11:07:33;;;;;;;0.88;0.50;;;;;;;23.47;31.01;96945.63;4987623;28;20050;-79
2024/03/20 11:10:03;;;;;;;0.70;0.70;;;;;;;23.53;29.50;96944.59;4978813;28;20063;-79
2024/03/20 11:12:30;;;;;;;1.58;0.88;;;;;;;23.55;29.73;96947.78;4977307;28;20554;-79
2024/03/20 11:14:58;;;;;;;1.40;0.80;;;;;;;23.56;30.10;96950.19;4976968;28;20470;-79
2024/03/20 11:17:25;;;;;;;4.07;0.70;;;;;;;23.60;29.65;96950.50;4977068;28;20507;-79
2024/03/20 11:19:52;;;;;;;2.47;0.52;;;;;;;23.72;29.12;96948.41;4977712;28;20055;-80
2024/03/20 11:22:22;;;;;;;0.82;0.80;;;;;;;23.74;28.33;96945.50;4975994;28;20050;-79
2024/03/20 11:24:51;;;;;;;1.95;1.13;;;;;;;23.69;32.30;96943.63;4977276;28;20478;-79
2024/03/20 11:27:18;;;;;;;2.85;0.70;;;;;;;23.72;29.14;96936.97;4977490;28;20178;-79
2024/03/20 11:29:45;;;;;;;1.00;0.60;;;;;;;23.72;29.74;96935.09;4977084;28;20058;-79
2024/03/20 11:32:13;;;;;;;3.13;0.77;;;;;;;23.67;29.46;96943.06;4976779;28;20062;-78
2024/03/20 11:34:41;;;;;;;0.60;0.60;;;;;;;23.56;28.63;96938.75;4976091;28;20503;-80
2024/03/20 11:37:13;;;;;;;1.40;0.50;;;;;;;23.50;29.85;96940.56;4975318;28;20541;-79
2024/03/20 11:39:40;;;;;;;1.42;0.70;;;;;;;23.51;28.89;96939.53;4976151;28;20081;-78
2024/03/20 11:42:06;;;;;;;3.80;0.95;;;;;;;23.49;29.80;96948.81;4976015;28;20061;-79
2024/03/20 11:44:34;;;;;;;1.77;0.65;;;;;;;23.45;28.35;96944.00;4976028;28;20503;-79
2024/03/20 11:47:00;;;;;;;1.50;0.90;;;;;;;23.41;28.67;96942.91;4976760;28;20058;-80
2024/03/20 11:49:27;;;;;;;1.77;0.90;;;;;;;23.47;28.00;96930.44;4975993;28;20070;-80
2024/03/20 11:51:53;;;;;;;3.85;1.02;;;;;;;23.40;27.92;96930.66;4976137;28;20078;-79
2024/03/20 11:54:20;;;;;;;1.98;0.90;;;;;;;23.29;29.56;96934.31;4976675;28;20058;-79
2024/03/20 11:56:47;;;;;;;1.55;0.50;;;;;;;23.31;30.09;96929.53;4975575;28;20050;-79